createdAt,value
2017-10-04T00:02:17.641Z,9.03
2017-10-04T00:04:44.047Z,6.53
2017-10-04T00:07:11.208Z,7.53
2017-10-04T00:09:37.687Z,8.17
2017-10-04T00:12:04.113Z,9.90
2017-10-04T00:14:30.534Z,5.17
2017-10-04T00:16:56.947Z,8.10
2017-10-04T00:19:24.086Z,6.13
2017-10-04T00:21:51.252Z,5.33
2017-10-04T00:24:18.374Z,8.90
2017-10-04T00:26:45.506Z,12.00
2017-10-04T00:29:13.384Z,5.20
2017-10-04T00:31:39.784Z,9.23
2017-10-04T00:34:06.185Z,7.70
2017-10-04T00:36:32.629Z,7.13
2017-10-04T00:38:59.052Z,4.57
2017-10-04T00:41:25.447Z,10.97
2017-10-04T00:43:51.887Z,8.30
2017-10-04T00:46:18.316Z,6.93
2017-10-04T00:48:44.712Z,8.90
2017-10-04T00:51:11.138Z,10.40
2017-10-04T00:53:37.568Z,4.93
2017-10-04T00:56:04.010Z,6.80
2017-10-04T00:58:30.478Z,9.13
2017-10-04T01:00:56.905Z,8.63
2017-10-04T01:03:23.313Z,6.53
2017-10-04T01:05:49.743Z,12.77
2017-10-04T01:08:16.208Z,7.67
2017-10-04T01:10:42.641Z,8.20
2017-10-04T01:13:09.801Z,15.53
2017-10-04T01:15:37.116Z,11.40
2017-10-04T01:18:03.552Z,10.13
2017-10-04T01:20:30.002Z,7.43
2017-10-04T01:22:56.386Z,10.40
2017-10-04T01:25:22.827Z,7.17
2017-10-04T01:27:49.256Z,6.87
2017-10-04T01:30:15.725Z,8.77
2017-10-04T01:32:42.145Z,9.60
2017-10-04T01:35:08.519Z,10.57
2017-10-04T01:37:35.664Z,13.20
2017-10-04T01:40:02.838Z,9.13
2017-10-04T01:42:30.781Z,11.93
2017-10-04T01:44:57.213Z,11.00
2017-10-04T01:47:23.610Z,15.10
2017-10-04T01:49:50.080Z,10.83
2017-10-04T01:52:16.547Z,9.67
2017-10-04T01:54:42.966Z,9.40
2017-10-04T01:57:10.122Z,7.03
2017-10-04T01:59:36.549Z,7.80
2017-10-04T02:02:03.684Z,9.70
2017-10-04T02:04:30.060Z,13.73
2017-10-04T02:06:56.467Z,10.30
2017-10-04T02:09:22.852Z,11.80
2017-10-04T02:11:49.265Z,7.13
2017-10-04T02:14:15.644Z,7.10
2017-10-04T02:16:42.027Z,8.57
2017-10-04T02:19:08.440Z,7.07
2017-10-04T02:21:34.836Z,8.67
2017-10-04T02:24:01.301Z,12.57
2017-10-04T02:26:27.698Z,7.80
2017-10-04T02:28:54.112Z,9.43
2017-10-04T02:31:20.578Z,8.80
2017-10-04T02:33:47.741Z,11.30
2017-10-04T02:36:14.207Z,10.90
2017-10-04T02:38:40.620Z,8.37
2017-10-04T02:41:07.016Z,14.33
2017-10-04T02:43:34.149Z,7.60
2017-10-04T02:46:02.112Z,11.80
2017-10-04T02:48:28.504Z,10.83
2017-10-04T02:50:54.918Z,11.53
2017-10-04T02:53:21.333Z,10.97
2017-10-04T02:55:47.788Z,14.83
2017-10-04T02:58:14.186Z,11.47
2017-10-04T03:00:41.356Z,7.63
2017-10-04T03:03:08.505Z,17.50
2017-10-04T03:05:35.635Z,11.00
2017-10-04T03:08:02.765Z,15.13
2017-10-04T03:10:29.162Z,11.47
2017-10-04T03:12:55.591Z,12.30
2017-10-04T03:15:22.021Z,11.87
2017-10-04T03:17:48.409Z,9.83
2017-10-04T03:20:14.796Z,10.97
2017-10-04T03:22:41.208Z,12.80
2017-10-04T03:25:08.407Z,8.73
2017-10-04T03:27:34.821Z,10.53
2017-10-04T03:30:01.263Z,15.53
2017-10-04T03:32:27.674Z,13.83
2017-10-04T03:34:54.069Z,12.00
2017-10-04T03:37:21.215Z,14.17
2017-10-04T03:39:49.099Z,16.87
2017-10-04T03:42:16.232Z,12.23
2017-10-04T03:44:43.380Z,8.40
2017-10-04T03:47:09.774Z,9.90
2017-10-04T03:49:36.162Z,9.77
2017-10-04T03:52:03.352Z,10.90
2017-10-04T03:54:29.777Z,12.40
2017-10-04T03:56:56.168Z,10.57
2017-10-04T03:59:23.286Z,15.00
2017-10-04T04:01:49.670Z,15.17
2017-10-04T04:04:16.074Z,10.73
2017-10-04T04:06:42.477Z,13.63
2017-10-04T04:09:08.899Z,8.93
2017-10-04T04:11:35.512Z,8.93
2017-10-04T04:14:01.950Z,11.43
2017-10-04T04:16:28.362Z,13.60
2017-10-04T04:18:55.520Z,14.37
2017-10-04T04:21:21.922Z,12.43
2017-10-04T04:23:49.054Z,10.53
2017-10-04T04:26:16.961Z,14.70
2017-10-04T04:28:43.454Z,10.50
2017-10-04T04:31:09.840Z,13.03
2017-10-04T04:33:36.263Z,11.73
2017-10-04T04:36:02.856Z,15.13
2017-10-04T04:38:42.997Z,11.20
2017-10-04T04:41:09.401Z,10.30
2017-10-04T04:43:35.806Z,15.30
2017-10-04T04:46:04.651Z,12.80
2017-10-04T04:48:31.054Z,11.53
2017-10-04T04:50:57.475Z,12.80
2017-10-04T04:53:24.634Z,19.47
2017-10-04T04:55:51.110Z,15.43
2017-10-04T04:58:17.517Z,12.30
2017-10-04T05:00:43.940Z,14.63
2017-10-04T05:03:10.338Z,11.13
2017-10-04T05:05:37.511Z,19.63
2017-10-04T05:08:03.933Z,22.50
2017-10-04T05:10:30.378Z,13.40
2017-10-04T05:12:56.807Z,10.93
2017-10-04T05:15:23.217Z,19.80
2017-10-04T05:17:50.382Z,16.50
2017-10-04T05:20:16.830Z,15.30
2017-10-04T05:22:43.252Z,15.07
2017-10-04T05:25:09.649Z,24.43
2017-10-04T05:27:36.057Z,16.50
2017-10-04T05:30:03.228Z,28.40
2017-10-04T05:32:29.669Z,19.90
2017-10-04T05:34:56.064Z,19.00
2017-10-04T05:37:22.583Z,18.33
2017-10-04T05:39:48.982Z,15.70
2017-10-04T05:42:16.126Z,14.33
2017-10-04T05:44:43.260Z,22.30
2017-10-04T05:47:11.155Z,20.17
2017-10-04T05:49:37.544Z,24.33
2017-10-04T05:52:03.940Z,18.03
2017-10-04T05:54:30.494Z,21.80
2017-10-04T05:56:56.882Z,21.33
2017-10-04T05:59:23.310Z,19.17
2017-10-04T06:01:49.742Z,18.63
2017-10-04T06:04:16.149Z,20.40
2017-10-04T06:06:42.565Z,19.07
2017-10-04T06:09:08.967Z,32.97
2017-10-04T06:11:35.335Z,14.60
2017-10-04T06:14:01.725Z,24.90
2017-10-04T06:16:28.178Z,19.37
2017-10-04T06:18:54.617Z,15.70
2017-10-04T06:21:21.041Z,19.50
2017-10-04T06:23:47.473Z,15.90
2017-10-04T06:26:13.852Z,18.13
2017-10-04T06:28:40.256Z,17.67
2017-10-04T06:31:06.681Z,16.97
2017-10-04T06:33:33.133Z,13.77
2017-10-04T06:35:59.559Z,14.33
2017-10-04T06:38:25.984Z,21.27
2017-10-04T06:40:52.430Z,20.77
2017-10-04T06:43:18.856Z,17.97
2017-10-04T06:45:45.249Z,16.80
2017-10-04T06:48:12.372Z,17.17
2017-10-04T06:50:39.523Z,19.63
2017-10-04T06:53:06.663Z,20.63
2017-10-04T06:55:33.154Z,22.00
2017-10-04T06:57:59.567Z,14.13
2017-10-04T07:00:25.996Z,11.83
2017-10-04T07:02:52.464Z,12.53
2017-10-04T07:05:18.903Z,13.30
2017-10-04T07:07:45.327Z,16.63
2017-10-04T07:10:11.824Z,12.03
2017-10-04T07:12:38.292Z,15.67
2017-10-04T07:15:04.721Z,12.60
2017-10-04T07:17:31.131Z,16.70
2017-10-04T07:19:57.595Z,13.30
2017-10-04T07:22:23.972Z,14.13
2017-10-04T07:24:51.204Z,17.30
2017-10-04T07:27:17.613Z,14.43
2017-10-04T07:29:44.002Z,10.23
2017-10-04T07:32:12.014Z,13.80
2017-10-04T07:34:38.446Z,11.83
2017-10-04T07:37:04.874Z,17.00
2017-10-04T07:39:31.331Z,14.50
2017-10-04T07:41:57.751Z,17.77
2017-10-04T07:44:24.200Z,21.23
2017-10-04T07:46:50.626Z,33.87
2017-10-04T07:49:17.036Z,10.30
2017-10-04T07:51:43.433Z,10.80
2017-10-04T07:54:10.629Z,10.80
2017-10-04T07:56:37.043Z,10.13
2017-10-04T07:59:03.503Z,10.37
2017-10-04T08:01:29.950Z,15.80
2017-10-04T08:03:56.382Z,8.90
2017-10-04T08:06:22.850Z,10.23
2017-10-04T08:08:49.999Z,9.50
2017-10-04T08:11:32.061Z,11.17
2017-10-04T08:13:58.478Z,9.03
2017-10-04T08:16:24.883Z,13.73
2017-10-04T08:18:51.323Z,13.50
2017-10-04T08:21:17.726Z,13.07
2017-10-04T08:23:44.897Z,11.40
2017-10-04T08:26:11.295Z,10.40
2017-10-04T08:28:39.189Z,13.50
2017-10-04T08:31:05.605Z,10.87
2017-10-04T08:33:32.756Z,14.27
2017-10-04T08:35:59.930Z,6.83
2017-10-04T08:38:26.329Z,11.63
2017-10-04T08:40:52.756Z,6.20
2017-10-04T08:43:19.160Z,6.10
2017-10-04T08:45:45.584Z,8.20
2017-10-04T08:48:32.917Z,17.03
2017-10-04T08:50:59.384Z,10.00
2017-10-04T08:53:26.568Z,7.30
2017-10-04T08:55:52.943Z,7.53
2017-10-04T08:58:19.348Z,6.03
2017-10-04T09:00:45.842Z,7.73
2017-10-04T09:03:13.011Z,8.83
2017-10-04T09:05:57.998Z,7.07
2017-10-04T09:08:24.425Z,8.53
2017-10-04T09:10:50.822Z,6.93
2017-10-04T09:13:17.980Z,6.33
2017-10-04T09:15:45.158Z,11.53
2017-10-04T09:18:11.552Z,8.30
2017-10-04T09:20:38.724Z,6.87
2017-10-04T09:23:06.014Z,5.50
2017-10-04T09:25:32.432Z,7.50
2017-10-04T09:27:58.838Z,7.90
2017-10-04T09:30:25.990Z,6.43
2017-10-04T09:32:52.473Z,8.30
2017-10-04T09:35:18.932Z,6.90
2017-10-04T09:37:46.141Z,7.47
2017-10-04T09:42:44.734Z,9.90
2017-10-04T09:45:11.161Z,14.33
2017-10-04T09:47:37.581Z,7.27
2017-10-04T09:50:03.998Z,11.67
2017-10-04T09:52:31.213Z,6.17
2017-10-04T09:54:57.629Z,4.13
2017-10-04T09:57:24.086Z,4.77
2017-10-04T09:59:50.535Z,4.17
2017-10-04T10:02:16.928Z,7.43
2017-10-04T10:04:43.310Z,8.57
2017-10-04T10:07:10.461Z,8.47
2017-10-04T10:09:37.636Z,8.37
2017-10-04T10:12:04.104Z,15.03
2017-10-04T10:14:30.834Z,6.17
2017-10-04T10:16:57.237Z,7.43
2017-10-04T10:19:23.664Z,2.93
2017-10-04T10:21:50.824Z,11.37
2017-10-04T10:24:17.252Z,10.70
2017-10-04T10:26:43.685Z,4.00
2017-10-04T10:29:10.094Z,2.97
2017-10-04T10:31:37.236Z,9.50
2017-10-04T10:34:05.141Z,5.60
2017-10-04T10:36:31.606Z,14.07
2017-10-04T10:38:58.048Z,7.97
2017-10-04T10:41:24.902Z,5.43
2017-10-04T10:43:51.332Z,3.40
2017-10-04T10:46:17.753Z,8.43
2017-10-04T10:48:44.166Z,6.33
2017-10-04T10:51:10.580Z,7.10
2017-10-04T10:53:36.977Z,9.23
2017-10-04T10:56:03.397Z,6.17
2017-10-04T10:58:29.805Z,8.73
2017-10-04T11:00:56.236Z,6.23
2017-10-04T11:03:22.635Z,6.27
2017-10-04T11:05:49.031Z,8.90
2017-10-04T11:08:15.441Z,4.37
2017-10-04T11:10:41.871Z,6.60
2017-10-04T11:13:08.313Z,6.00
2017-10-04T11:15:34.758Z,7.47
2017-10-04T11:18:01.256Z,6.43
2017-10-04T11:20:27.698Z,8.10
2017-10-04T11:22:54.122Z,7.70
2017-10-04T11:25:20.584Z,8.53
2017-10-04T11:27:47.075Z,5.20
2017-10-04T11:30:13.489Z,6.07
2017-10-04T11:32:40.707Z,7.47
2017-10-04T11:35:07.088Z,5.50
2017-10-04T11:37:33.517Z,8.40
2017-10-04T11:40:00.673Z,4.10
2017-10-04T11:42:27.087Z,9.83
2017-10-04T11:44:54.223Z,2.77
2017-10-04T11:47:20.611Z,4.13
2017-10-04T11:49:47.012Z,5.90
2017-10-04T11:52:14.163Z,5.43
2017-10-04T11:54:40.543Z,8.33
2017-10-04T11:57:06.932Z,4.87
2017-10-04T11:59:33.339Z,3.57
2017-10-04T12:01:59.732Z,5.80
2017-10-04T12:04:26.139Z,4.00
2017-10-04T12:06:52.522Z,3.40
2017-10-04T12:09:18.917Z,8.80
2017-10-04T12:11:45.331Z,5.77
2017-10-04T12:14:11.726Z,3.67
2017-10-04T12:16:38.108Z,3.80
2017-10-04T12:19:04.511Z,5.83
2017-10-04T12:21:31.687Z,3.50
2017-10-04T12:23:58.102Z,6.37
2017-10-04T12:26:25.233Z,4.67
2017-10-04T12:28:51.631Z,3.20
2017-10-04T12:31:18.037Z,3.83
2017-10-04T12:33:44.454Z,3.63
2017-10-04T12:36:10.845Z,4.13
2017-10-04T12:38:37.240Z,4.57
2017-10-04T12:41:03.650Z,2.53
2017-10-04T12:43:30.803Z,5.50
2017-10-04T12:45:57.268Z,4.20
2017-10-04T12:48:23.731Z,11.50
2017-10-04T12:50:50.162Z,4.83
2017-10-04T12:53:16.552Z,17.40
2017-10-04T12:55:42.986Z,4.50
2017-10-04T12:58:09.389Z,6.83
2017-10-04T13:00:35.796Z,3.93
2017-10-04T13:03:02.261Z,4.20
2017-10-04T13:05:28.764Z,4.80
2017-10-04T13:07:55.155Z,4.30
2017-10-04T13:10:21.540Z,6.77
2017-10-04T13:12:48.008Z,9.07
2017-10-04T13:15:14.473Z,3.47
2017-10-04T13:17:42.445Z,4.30
2017-10-04T13:20:08.879Z,3.67
2017-10-04T13:22:35.324Z,4.20
2017-10-04T13:25:01.774Z,3.33
2017-10-04T13:27:28.974Z,7.87
2017-10-04T13:29:55.460Z,5.80
2017-10-04T13:32:21.899Z,6.80
2017-10-04T13:34:49.096Z,5.03
2017-10-04T13:37:15.501Z,4.00
2017-10-04T13:39:42.653Z,6.37
2017-10-04T13:42:09.114Z,6.33
2017-10-04T13:44:35.564Z,12.03
2017-10-04T13:47:01.992Z,9.83
2017-10-04T13:49:28.446Z,4.77
2017-10-04T13:51:54.898Z,4.73
2017-10-04T13:54:22.071Z,3.93
2017-10-04T13:56:48.524Z,6.70
2017-10-04T13:59:14.962Z,4.33
2017-10-04T14:01:41.361Z,2.90
2017-10-04T14:04:08.509Z,6.07
2017-10-04T14:06:35.687Z,3.73
2017-10-04T14:09:02.181Z,5.60
2017-10-04T14:11:35.683Z,2.60
2017-10-04T14:14:02.878Z,2.03
2017-10-04T14:16:29.309Z,7.30
2017-10-04T14:18:55.770Z,6.60
2017-10-04T14:21:22.242Z,2.83
2017-10-04T14:23:49.468Z,7.80
2017-10-04T14:26:15.869Z,6.13
2017-10-04T14:28:42.257Z,3.20
2017-10-04T14:31:09.396Z,5.47
2017-10-04T14:33:36.579Z,10.60
2017-10-04T14:36:03.012Z,5.43
2017-10-04T14:38:29.416Z,4.73
2017-10-04T14:40:56.551Z,10.67
2017-10-04T14:43:22.979Z,5.23
2017-10-04T14:45:49.437Z,11.50
2017-10-04T14:48:16.679Z,4.20
2017-10-04T14:50:43.097Z,1.90
2017-10-04T14:53:09.544Z,3.70
2017-10-04T14:55:36.665Z,5.53
2017-10-04T14:58:03.086Z,8.47
2017-10-04T15:00:29.495Z,7.93
2017-10-04T15:02:55.881Z,4.97
2017-10-04T15:05:22.292Z,5.43
2017-10-04T15:07:48.708Z,4.13
2017-10-04T15:10:15.167Z,7.03
2017-10-04T15:12:41.561Z,4.90
2017-10-04T15:15:07.967Z,11.33
2017-10-04T15:17:35.118Z,4.33
2017-10-04T15:20:01.603Z,7.97
2017-10-04T15:22:28.032Z,6.83
2017-10-04T15:24:54.461Z,13.20
2017-10-04T15:27:20.869Z,5.07
2017-10-04T15:29:47.272Z,6.00
2017-10-04T15:32:13.660Z,6.33
2017-10-04T15:34:40.072Z,6.10
2017-10-04T15:37:06.458Z,4.27
2017-10-04T15:39:32.902Z,6.40
2017-10-04T15:41:59.324Z,8.90
2017-10-04T15:44:25.711Z,5.90
2017-10-04T15:46:52.105Z,9.33
2017-10-04T15:49:19.344Z,5.33
2017-10-04T15:51:46.606Z,7.30
2017-10-04T15:54:13.060Z,5.97
2017-10-04T15:56:39.460Z,10.23
2017-10-04T15:59:05.885Z,3.60
2017-10-04T16:01:32.373Z,17.73
2017-10-04T16:03:58.831Z,14.97
2017-10-04T16:06:25.304Z,5.93
2017-10-04T16:08:51.707Z,12.07
2017-10-04T16:11:18.107Z,10.83
2017-10-04T16:13:44.551Z,5.60
2017-10-04T16:16:10.962Z,25.30
2017-10-04T16:18:37.378Z,8.57
2017-10-04T16:21:04.577Z,6.57
2017-10-04T16:23:31.012Z,6.73
2017-10-04T16:25:57.441Z,4.10
2017-10-04T16:28:23.913Z,7.77
2017-10-04T16:30:51.091Z,8.63
2017-10-04T16:33:17.545Z,20.73
2017-10-04T16:35:43.968Z,11.53
2017-10-04T16:38:10.382Z,7.67
2017-10-04T16:40:37.508Z,14.50
2017-10-04T16:43:03.917Z,8.60
2017-10-04T16:45:30.342Z,6.33
2017-10-04T16:47:57.560Z,6.70
2017-10-04T16:50:24.036Z,9.20
2017-10-04T16:52:50.446Z,7.67
2017-10-04T16:55:16.840Z,10.30
2017-10-04T16:57:43.973Z,6.50
2017-10-04T17:00:10.422Z,15.90
2017-10-04T17:02:37.580Z,11.50
2017-10-04T17:05:04.732Z,8.80
2017-10-04T17:07:31.921Z,44.07
2017-10-04T17:09:58.394Z,44.30
2017-10-04T17:12:24.793Z,20.57
2017-10-04T17:14:51.206Z,12.13
2017-10-04T17:17:17.595Z,18.03
2017-10-04T17:19:43.973Z,27.27
2017-10-04T17:22:10.383Z,24.33
2017-10-04T17:24:36.805Z,10.57
2017-10-04T17:27:03.237Z,7.90
2017-10-04T17:29:30.458Z,11.73
2017-10-04T17:31:56.867Z,14.27
2017-10-04T17:34:23.276Z,11.73
2017-10-04T17:36:49.671Z,15.63
2017-10-04T17:39:16.077Z,9.57
2017-10-04T17:41:42.533Z,14.50
2017-10-04T17:44:08.930Z,15.83
2017-10-04T17:46:35.313Z,19.70
2017-10-04T17:49:02.460Z,17.80
2017-10-04T17:51:29.580Z,10.77
2017-10-04T17:53:55.977Z,13.00
2017-10-04T17:56:22.946Z,10.80
2017-10-04T17:58:49.321Z,9.50
2017-10-04T18:01:15.764Z,10.87
2017-10-04T18:03:42.215Z,9.80
2017-10-04T18:06:08.632Z,11.30
2017-10-04T18:08:35.773Z,11.53
2017-10-04T18:11:03.010Z,8.50
2017-10-04T18:13:30.339Z,10.03
2017-10-04T18:15:56.775Z,19.20
2017-10-04T18:18:23.240Z,13.00
2017-10-04T18:20:50.406Z,11.23
2017-10-04T18:23:17.652Z,12.07
2017-10-04T18:25:44.860Z,16.60
2017-10-04T18:28:11.273Z,15.67
2017-10-04T18:30:38.572Z,18.00
2017-10-04T18:33:05.051Z,16.67
2017-10-04T18:35:31.469Z,21.70
2017-10-04T18:37:57.903Z,23.23
2017-10-04T18:40:24.378Z,23.07
2017-10-04T18:42:50.803Z,37.43
2017-10-04T18:45:17.208Z,14.30
2017-10-04T18:47:43.675Z,11.03
2017-10-04T18:50:10.113Z,15.10
2017-10-04T18:52:36.598Z,14.37
2017-10-04T18:55:03.761Z,26.47
2017-10-04T18:57:30.955Z,26.70
2017-10-04T18:59:57.463Z,19.23
2017-10-04T19:02:23.885Z,30.20
2017-10-04T19:04:50.297Z,36.73
2017-10-04T19:07:16.754Z,22.83
2017-10-04T19:09:43.177Z,15.80
2017-10-04T19:12:09.625Z,20.03
2017-10-04T19:14:36.073Z,19.70
2017-10-04T19:17:02.514Z,15.20
2017-10-04T19:19:28.908Z,14.40
2017-10-04T19:21:55.333Z,11.00
2017-10-04T19:24:21.776Z,13.10
2017-10-04T19:26:48.217Z,11.20
2017-10-04T19:29:14.633Z,12.03
2017-10-04T19:31:41.067Z,18.67
2017-10-04T19:34:07.466Z,16.40
2017-10-04T19:36:34.053Z,12.83
2017-10-04T19:39:00.466Z,15.63
2017-10-04T19:41:26.917Z,16.40
2017-10-04T19:43:53.397Z,8.27
2017-10-04T19:46:19.805Z,8.27
2017-10-04T19:48:46.212Z,10.00
2017-10-04T19:51:12.605Z,10.40
2017-10-04T19:53:39.005Z,8.27
2017-10-04T19:56:05.405Z,13.67
2017-10-04T19:58:31.809Z,12.20
2017-10-04T20:00:58.184Z,13.43
2017-10-04T20:03:24.597Z,12.30
2017-10-04T20:05:50.988Z,8.07
2017-10-04T20:08:17.421Z,12.27
2017-10-04T20:10:43.857Z,10.70
2017-10-04T20:13:10.300Z,9.17
2017-10-04T20:15:37.433Z,12.00
2017-10-04T20:18:03.885Z,10.53
2017-10-04T20:20:30.306Z,8.90
2017-10-04T20:22:57.448Z,10.47
2017-10-04T20:25:23.869Z,11.23
2017-10-04T20:27:50.255Z,8.70
2017-10-04T20:30:17.429Z,7.30
2017-10-04T20:32:43.840Z,10.53
2017-10-04T20:35:10.229Z,14.30
2017-10-04T20:37:36.629Z,9.60
2017-10-04T20:40:03.079Z,8.27
2017-10-04T20:42:29.470Z,15.63
2017-10-04T20:44:55.902Z,8.87
2017-10-04T20:47:22.340Z,6.40
2017-10-04T20:49:48.743Z,7.07
2017-10-04T20:52:15.902Z,10.47
2017-10-04T20:54:43.033Z,11.07
2017-10-04T20:57:10.180Z,7.77
2017-10-04T20:59:36.588Z,9.90
2017-10-04T21:02:02.977Z,9.53
2017-10-04T21:04:29.447Z,10.17
2017-10-04T21:06:55.873Z,8.10
2017-10-04T21:09:22.264Z,10.23
2017-10-04T21:11:49.401Z,7.97
2017-10-04T21:14:16.543Z,11.03
2017-10-04T21:16:43.682Z,4.67
2017-10-04T21:19:10.165Z,8.00
2017-10-04T21:21:36.615Z,11.10
2017-10-04T21:24:03.025Z,8.13
2017-10-04T21:26:29.424Z,13.23
2017-10-04T21:28:55.801Z,10.20
2017-10-04T21:31:22.220Z,9.70
2017-10-04T21:33:48.640Z,7.03
2017-10-04T21:36:15.856Z,5.80
2017-10-04T21:38:42.248Z,7.20
2017-10-04T21:41:08.654Z,8.30
2017-10-04T21:43:35.802Z,7.67
2017-10-04T21:46:02.969Z,7.07
2017-10-04T21:48:29.382Z,10.60
2017-10-04T21:50:56.591Z,12.67
2017-10-04T21:53:23.015Z,6.87
2017-10-04T21:55:49.395Z,8.07
2017-10-04T21:58:16.535Z,4.20
2017-10-04T22:00:42.951Z,6.10
2017-10-04T22:03:09.348Z,7.93
2017-10-04T22:05:35.749Z,7.87
2017-10-04T22:08:02.891Z,5.33
2017-10-04T22:10:29.313Z,7.00
2017-10-04T22:12:55.711Z,7.80
2017-10-04T22:15:22.132Z,6.43
2017-10-04T22:17:48.525Z,5.00
2017-10-04T22:20:14.944Z,7.60
2017-10-04T22:22:42.102Z,9.27
2017-10-04T22:25:09.274Z,10.53
2017-10-04T22:27:35.681Z,7.70
2017-10-04T22:30:02.864Z,9.23
2017-10-04T22:32:29.264Z,8.40
2017-10-04T22:34:55.672Z,9.10
2017-10-04T22:37:22.102Z,6.83
2017-10-04T22:39:48.507Z,7.03
2017-10-04T22:42:14.912Z,5.63
2017-10-04T22:44:42.069Z,8.93
2017-10-04T22:47:08.474Z,12.27
2017-10-04T22:49:34.943Z,8.97
2017-10-04T22:52:01.313Z,6.77
2017-10-04T22:54:27.716Z,3.60
2017-10-04T22:56:54.132Z,5.73
2017-10-04T22:59:20.508Z,6.57
2017-10-04T23:01:46.911Z,5.23
2017-10-04T23:04:13.296Z,6.30
2017-10-04T23:06:39.768Z,6.10
2017-10-04T23:09:06.194Z,9.80
2017-10-04T23:11:32.623Z,11.20
2017-10-04T23:13:59.777Z,6.20
2017-10-04T23:16:26.929Z,4.47
2017-10-04T23:18:53.376Z,8.50
2017-10-04T23:21:19.800Z,6.80
2017-10-04T23:23:46.207Z,7.10
2017-10-04T23:26:13.349Z,8.07
2017-10-04T23:28:40.492Z,8.30
2017-10-04T23:31:06.875Z,7.53
2017-10-04T23:33:33.289Z,7.67
2017-10-04T23:35:59.693Z,6.13
2017-10-04T23:38:26.843Z,5.30
2017-10-04T23:40:53.261Z,12.10
2017-10-04T23:43:19.668Z,6.17
2017-10-04T23:45:46.054Z,12.40
2017-10-04T23:48:13.178Z,4.40
2017-10-04T23:50:39.627Z,5.20
2017-10-04T23:53:06.003Z,7.80
2017-10-04T23:55:32.412Z,4.10
2017-10-04T23:57:59.537Z,3.67
